Latest Weather Observations for Low Rocky Point

IDT60801

Issued at 1:35 pm EST Friday 19 September 2014 (issued every 30 minutes, with the page automatically refreshed every 10 minutes)

About weather observations | Map of weather stations | Latest weather observations for TAS | Other Formats
Station Details ID: 097080 Name: LOW ROCKY POINT Lat: -42.98 Lon: 145.50 Height: 34.0 m
Data from the previous 72 hours. | See also: Recent months at Low Rocky Point
Date/Time
EST
Temp
°C
App
Temp
°C
Dew
Point
Rel
Hum
%
Delta-T
°C
Wind Press
QNH
hPa
Press
MSL
hPa
Rain
since 9 am
mm
Dir
 
Spd
km/h
Gust
km/h
Spd
kts
Gust
kts
19/01:30pm 13.0 8.4 8.3 73 2.3 WSW 22 32 12 17 1019.4 1019.4 0.0
19/01:00pm 13.3 8.3 8.0 70 2.6 WSW 24 32 13 17 1019.4 1019.4 0.0
19/12:30pm 12.3 7.5 8.8 79 1.7 WSW 24 37 13 20 1019.4 1019.4 0.0
19/12:00pm 13.1 8.9 8.2 72 2.4 WSW 20 30 11 16 1019.5 1019.5 0.0
19/11:30am 13.6 9.0 8.0 69 2.8 WSW 22 30 12 16 1019.5 1019.5 0.0
19/11:00am 13.6 8.1 7.6 67 2.9 WSW 26 39 14 21 1019.6 1019.6 0.0
19/10:30am 13.2 8.1 9.1 76 2.1 WSW 26 37 14 20 1019.5 1019.5 0.0
19/10:00am 12.3 6.8 9.3 82 1.5 WSW 28 39 15 21 1019.4 1019.4 0.0
19/09:30am 11.3 5.5 7.8 79 1.7 WSW 28 48 15 26 1019.4 1019.4 0.0
19/09:24am 12.1 6.3 7.8 75 2.1 WSW 28 48 15 26 1019.4 1019.4 0.0
19/09:00am 11.9 6.8 7.8 76 2.0 WSW 24 33 13 18 1019.3 1019.3 1.8
19/08:30am 11.8 6.6 7.3 74 2.2 WSW 24 32 13 17 1019.1 1019.1 1.8
19/08:00am 11.2 4.4 6.7 74 2.1 SW 32 43 17 23 1019.0 1019.0 1.8
19/07:40am 11.3 4.5 7.0 75 2.1 WSW 32 50 17 27 1018.8 1018.8 1.8
19/07:30am 11.0 4.0 6.9 76 1.9 SW 33 48 18 26 1018.8 1018.8 1.8
19/07:00am 10.9 5.1 8.0 82 1.4 WSW 28 39 15 21 1018.6 1018.6 1.8
19/06:30am 10.8 5.1 8.2 84 1.3 SW 28 43 15 23 1018.3 1018.3 1.8
19/06:13am 10.7 3.6 8.1 84 1.3 SW 35 57 19 31 1018.2 1018.2 1.8
19/06:00am 10.8 3.7 8.2 84 1.3 SW 35 46 19 25 1018.0 1018.0 1.8
19/05:30am 10.8 4.1 8.2 84 1.3 SW 33 46 18 25 1017.7 1017.7 1.8
19/05:02am 11.0 4.6 8.4 84 1.3 WSW 32 50 17 27 1017.7 1017.7 1.8
19/05:00am 11.0 4.9 8.4 84 1.3 WSW 30 44 16 24 1017.6 1017.6 1.8
19/04:30am 11.0 4.4 8.6 85 1.2 WSW 33 46 18 25 1017.5 1017.5 1.8
19/04:20am 10.7 3.7 8.3 85 1.2 WSW 35 54 19 29 1017.4 1017.4 1.8
19/04:00am 11.0 3.8 9.1 88 0.9 WSW 37 52 20 28 1017.2 1017.2 1.8
19/03:30am 10.6 2.6 9.0 90 0.8 WSW 41 54 22 29 1017.1 1017.1 1.6
19/03:01am 10.4 2.7 8.5 88 0.9 WSW 39 61 21 33 1017.4 1017.4 1.6
19/03:00am 10.6 2.9 8.7 88 0.9 WSW 39 54 21 29 1017.3 1017.3 1.4
19/02:44am 11.3 3.6 8.7 84 1.3 WSW 39 63 21 34 1017.3 1017.3 1.4
19/02:30am 11.1 3.7 8.5 84 1.3 WSW 37 48 20 26 1017.4 1017.4 1.4
19/02:00am 11.0 2.6 8.8 86 1.1 WSW 43 57 23 31 1017.5 1017.5 1.4
19/01:50am 10.9 4.0 8.8 87 1.0 WSW 35 54 19 29 1017.5 1017.5 1.4
19/01:30am 10.8 2.4 9.1 89 0.8 W 43 54 23 29 1017.6 1017.6 1.4
19/01:02am 11.0 1.8 8.0 82 1.5 W 46 65 25 35 1017.7 1017.7 1.0
19/01:00am 11.3 2.2 8.5 83 1.4 W 46 59 25 32 1017.5 1017.5 1.0
19/12:30am 11.2 2.8 9.1 87 1.0 W 43 52 23 28 1017.5 1017.5 1.0
19/12:00am 10.8 2.3 9.2 90 0.8 W 44 56 24 30 1017.7 1017.7 1.0
 
Date/Time
EST
Temp
°C
App
Temp
°C
Dew
Point
Rel
Hum
%
Delta-T
°C
Wind Press
QNH
hPa
Press
MSL
hPa
Rain
since 9 am
mm
Dir
 
Spd
km/h
Gust
km/h
Spd
kts
Gust
kts
18/11:30pm 11.1 3.0 8.8 86 1.1 W 41 50 22 27 1017.8 1017.8 0.8
18/11:00pm 10.9 2.3 8.8 87 1.0 W 44 56 24 30 1017.9 1017.9 0.8
18/10:30pm 11.0 2.6 8.8 86 1.1 W 43 52 23 28 1017.9 1017.9 0.6
18/10:00pm 10.7 2.9 8.3 85 1.2 W 39 46 21 25 1018.1 1018.1 0.6
18/09:30pm 11.0 3.9 7.9 81 1.5 W 35 43 19 23 1018.2 1018.2 0.6
18/09:00pm 11.2 4.3 7.1 76 2.0 W 33 43 18 23 1018.5 1018.5 0.6
18/08:30pm 11.2 4.7 6.5 73 2.2 WSW 30 41 16 22 1018.6 1018.6 0.6
18/08:00pm 11.0 4.4 6.2 72 2.2 WSW 30 37 16 20 1018.5 1018.5 0.6
18/07:30pm 10.8 3.6 6.0 72 2.2 SW 33 43 18 23 1018.6 1018.6 0.6
18/07:00pm 10.8 4.4 6.9 77 1.8 WSW 30 41 16 22 1018.3 1018.3 0.4
18/06:30pm 10.9 4.4 6.6 75 2.0 WSW 30 39 16 21 1018.1 1018.1 0.4
18/06:00pm 10.7 5.2 7.4 80 1.6 W 26 33 14 18 1018.0 1018.0 0.4
18/05:30pm 10.6 4.9 6.7 77 1.8 WSW 26 35 14 19 1017.9 1017.9 0.4
18/05:00pm 10.4 4.7 6.7 78 1.7 WSW 26 37 14 20 1017.6 1017.6 0.4
18/04:30pm 10.4 3.0 6.7 78 1.7 WSW 35 48 19 26 1017.6 1017.6 0.4
18/04:26pm 10.7 4.2 6.5 75 2.0 WSW 30 48 16 26 1017.6 1017.6 0.4
18/04:00pm 11.8 5.5 5.9 67 2.8 WSW 28 41 15 22 1017.5 1017.5 0.4
18/03:30pm 12.7 6.0 5.8 63 3.2 WSW 30 39 16 21 1017.5 1017.5 0.4
18/03:00pm 13.3 6.4 6.6 64 3.2 WSW 32 46 17 25 1017.4 1017.4 0.4
18/02:30pm 12.1 4.1 7.6 74 2.2 W 39 52 21 28 1017.4 1017.4 0.4
18/02:00pm 12.0 3.1 7.5 74 2.2 W 44 56 24 30 1017.2 1017.2 0.4
18/01:30pm 11.4 1.9 6.5 72 2.3 W 46 59 25 32 1017.1 1017.1 0.4
18/01:00pm 11.4 1.8 6.1 70 2.5 W 46 56 25 30 1017.2 1017.2 0.4
18/12:30pm 11.8 3.4 5.4 65 3.0 W 39 48 21 26 1017.3 1017.3 0.4
18/12:00pm 11.9 5.0 6.6 70 2.5 W 32 44 17 24 1017.6 1017.6 0.4
18/11:30am 10.8 3.6 4.9 67 2.7 WSW 32 44 17 24 1018.1 1018.1 0.4
18/11:00am 9.6 2.9 5.8 77 1.7 WSW 30 43 16 23 1018.2 1018.2 0.4
18/10:30am 9.1 3.5 5.3 77 1.7 WSW 24 37 13 20 1018.3 1018.3 0.0
18/10:15am 10.8 4.5 5.8 71 2.3 WSW 28 54 15 29 1018.2 1018.2 0.0
18/10:00am 11.5 7.1 6.6 72 2.3 SW 19 26 10 14 1018.2 1018.2 0.0
18/09:30am 8.7 2.5 4.5 75 1.9 SSW 26 44 14 24 1018.4 1018.4 0.0
18/09:00am 10.4 4.3 5.0 69 2.4 SW 26 35 14 19 1018.0 1018.0 2.0
18/08:30am 9.5 3.8 5.1 74 2.0 SW 24 35 13 19 1017.8 1017.8 2.0
18/08:00am 8.3 2.0 3.8 73 1.9 SSW 26 48 14 26 1017.7 1017.7 2.0
18/07:55am 9.9 3.3 4.1 67 2.6 SW 28 48 15 26 1017.6 1017.6 1.8
18/07:30am 8.9 2.6 3.7 70 2.3 SSW 26 39 14 21 1017.3 1017.3 1.8
18/07:00am 9.1 3.3 4.3 72 2.1 SSW 24 37 13 20 1016.9 1016.9 1.8
18/06:30am 9.0 2.5 4.6 74 2.0 SSW 28 41 15 22 1016.5 1016.5 1.8
18/06:00am 8.6 1.2 3.8 72 2.1 SSW 32 44 17 24 1016.2 1016.1 1.8
18/05:30am 9.0 1.5 4.6 74 2.0 SW 33 44 18 24 1015.7 1015.7 1.8
18/05:00am 9.1 1.8 4.3 72 2.1 SW 32 44 17 24 1015.2 1015.2 1.8
18/04:30am 9.3 1.9 4.9 74 2.0 SW 33 46 18 25 1014.9 1015.0 1.8
18/04:05am 8.6 2.2 5.2 79 1.5 SSW 28 46 15 25 1014.7 1014.8 1.8
18/04:00am 8.5 2.5 5.1 79 1.5 SSW 26 37 14 20 1014.7 1014.7 1.8
18/03:30am 8.8 1.9 4.8 76 1.8 SSW 30 43 16 23 1014.5 1014.6 1.8
18/03:00am 8.2 2.4 4.2 76 1.7 SW 24 33 13 18 1014.2 1014.2 1.8
18/02:49am 8.6 2.1 4.8 77 1.7 SW 28 50 15 27 1014.2 1014.3 1.8
18/02:30am 8.9 1.9 4.3 73 2.0 SW 30 43 16 23 1014.2 1014.3 1.6
18/02:00am 9.4 3.8 3.2 65 2.7 SW 22 30 12 16 1014.0 1014.0 1.6
18/01:30am 9.2 2.3 2.5 63 2.8 SW 28 39 15 21 1014.1 1014.2 1.6
18/01:00am 9.4 1.9 3.4 66 2.6 SW 32 43 17 23 1014.0 1014.0 1.6
18/12:30am 9.6 3.0 4.0 68 2.5 SW 28 39 15 21 1013.7 1013.8 1.6
18/12:00am 9.2 1.7 3.2 66 2.6 SSW 32 46 17 25 1013.5 1013.5 1.6
 
Date/Time
EST
Temp
°C
App
Temp
°C
Dew
Point
Rel
Hum
%
Delta-T
°C
Wind Press
QNH
hPa
Press
MSL
hPa
Rain
since 9 am
mm
Dir
 
Spd
km/h
Gust
km/h
Spd
kts
Gust
kts
17/11:30pm 9.0 1.0 3.6 69 2.3 SW 35 48 19 26 1013.1 1013.2 1.6
17/11:00pm 8.4 0.9 4.2 75 1.8 SW 33 46 18 25 1012.9 1012.9 1.6
17/10:30pm 8.1 -1.0 3.9 75 1.8 SSW 41 59 22 32 1012.6 1012.7 1.6
17/10:22pm 9.2 0.4 3.6 68 2.4 SSW 39 59 21 32 1012.4 1012.5 1.6
17/10:00pm 9.4 0.6 3.6 67 2.5 SW 39 54 21 29 1012.1 1012.1 1.6
17/09:30pm 9.2 1.2 3.8 69 2.4 SW 35 50 19 27 1011.5 1011.6 1.6
17/09:00pm 8.5 0.5 3.9 73 2.0 SSW 35 48 19 26 1011.1 1011.1 1.6
17/08:47pm 9.1 1.0 3.1 66 2.6 SW 35 54 19 29 1011.0 1011.1 1.6
17/08:30pm 8.7 0.2 3.3 69 2.3 SW 37 50 20 27 1010.9 1011.0 1.6
17/08:21pm 8.7 2.2 4.7 76 1.8 SW 28 50 15 27 1010.7 1010.8 1.6
17/08:00pm 7.7 1.8 3.9 77 1.6 SSW 24 35 13 19 1010.5 1010.5 1.6
17/07:46pm 8.6 0.9 3.4 70 2.2 SW 33 61 18 33 1010.3 1010.4 1.6
17/07:30pm 8.6 1.2 4.0 73 2.0 WSW 32 46 17 25 1009.9 1010.0 1.6
17/07:00pm 8.2 1.5 3.7 73 1.9 WSW 28 39 15 21 1009.6 1009.6 1.6
17/06:30pm 8.1 0.7 3.9 75 1.8 WSW 32 39 17 21 1009.2 1009.3 1.6
17/06:00pm 8.2 1.2 4.0 75 1.8 WSW 30 41 16 22 1008.8 1008.8 1.6
17/05:30pm 7.6 0.9 3.8 77 1.6 W 28 35 15 19 1008.5 1008.6 1.6
17/05:02pm 6.4 -1.3 2.3 75 1.7 WSW 32 50 17 27 1008.4 1008.5 1.6
17/05:00pm 6.7 -1.5 2.6 75 1.7 WSW 35 52 19 28 1008.5 1008.5 1.2
17/04:50pm 7.2 -0.6 2.7 73 1.9 SW 33 54 18 29 1008.2 1008.3 1.2
17/04:39pm 8.6 -2.3 3.4 70 2.2 SW 50 59 27 32 1007.8 1007.9 1.0
17/04:30pm 8.8 3.6 3.6 70 2.2 SW 20 30 11 16 1007.7 1007.8 1.0
17/04:00pm 8.5 1.9 4.1 74 1.9 WSW 28 41 15 22 1007.6 1007.6 1.0
17/03:45pm 8.2 0.5 3.5 72 2.0 SW 33 52 18 28 1007.5 1007.6 1.0
17/03:30pm 9.3 2.2 3.5 67 2.5 SW 30 44 16 24 1007.2 1007.3 1.0
17/03:00pm 9.5 0.5 4.3 70 2.3 SW 41 57 22 31 1006.9 1006.9 1.0
17/02:49pm 10.4 2.8 3.9 64 2.9 SW 33 57 18 31 1006.7 1006.8 1.0
17/02:30pm 11.0 3.4 3.8 61 3.2 SW 33 44 18 24 1006.7 1006.8 1.0
17/02:01pm 10.6 3.1 4.7 67 2.7 SSW 33 52 18 28 1006.4 1006.5 1.0
17/02:00pm 10.3 2.4 4.5 67 2.6 SSW 35 52 19 28 1006.4 1006.4 1.0
17/01:42pm 11.1 2.9 4.8 65 2.9 SW 37 56 20 30 1006.0 1006.1 1.0
17/01:30pm 11.0 2.2 3.8 61 3.2 SW 39 48 21 26 1006.0 1006.1 1.0
17/01:00pm 10.2 2.3 4.1 66 2.7 SW 35 48 19 26 1005.8 1005.8 1.0
17/12:30pm 9.4 1.5 4.4 71 2.2 SW 35 50 19 27 1005.8 1005.9 1.0
17/12:00pm 10.7 4.1 5.9 72 2.2 SW 30 43 16 23 1006.0 1006.0 1.0
17/11:30am 9.6 2.9 5.4 75 1.9 WSW 30 41 16 22 1006.0 1006.1 1.0
17/11:00am 8.5 1.4 5.6 82 1.3 SW 32 43 17 23 1005.8 1005.8 1.0
17/10:30am 8.1 1.1 5.9 86 1.0 SW 32 46 17 25 1005.7 1005.8 1.0
17/10:00am 7.8 2.4 6.3 90 0.7 SW 24 39 13 21 1005.6 1005.6 1.0
17/09:30am 7.5 1.6 5.8 89 0.8 SW 26 37 14 20 1005.2 1005.3 0.2
17/09:00am 7.1 2.3 5.6 90 0.7 WSW 20 32 11 17 1005.3 1005.3 6.4
17/08:32am 7.2 -1.6 5.5 89 0.8 W 41 63 22 34 1005.3 1005.4 5.2
17/08:30am 7.2 -1.2 5.7 90 0.7 W 39 54 21 29 1005.3 1005.4 5.2
17/08:10am 7.2 0.9 5.8 91 0.6 WSW 28 46 15 25 1005.3 1005.4 5.0
17/08:00am 7.5 2.8 6.1 91 0.6 W 20 26 11 14 1005.2 1005.2 4.8
17/07:30am 7.8 3.4 6.6 92 0.6 WNW 19 22 10 12 1004.8 1004.8 4.2
17/07:00am 7.5 0.6 6.4 93 0.5 W 32 33 17 18 1005.0 1005.0 4.2
17/06:30am 8.4 -1.0 7.3 93 0.5 W 46 56 25 30 1004.9 1004.9 3.6
17/06:00am 8.5 -0.4 7.7 95 0.4 W 44 57 24 31 1004.9 1004.9 3.6
17/05:38am 8.6 1.5 8.2 97 0.2 W 35 56 19 30 1004.8 1004.8 3.4
17/05:37am 8.8 2.4 8.5 98 0.1 W 32 44 17 24 1004.8 1004.8 3.4
17/05:30am 7.9 3.7 7.5 97 0.2 N 19 24 10 13 1004.8 1004.8 3.4
17/05:00am 8.5 3.5 8.1 97 0.2 NNW 24 32 13 17 1005.0 1005.0 3.4
17/04:30am 8.3 4.2 7.9 97 0.2 N 19 24 10 13 1005.1 1005.2 3.0
17/04:00am 8.5 5.2 8.1 97 0.2 NNW 15 22 8 12 1005.4 1005.4 3.0
17/03:30am 8.5 5.2 7.9 96 0.3 N 15 24 8 13 1005.6 1005.7 2.6
17/03:00am 8.5 5.1 7.7 95 0.4 N 15 20 8 11 1006.0 1006.0 2.6
17/02:30am 9.3 3.6 8.5 95 0.4 WNW 28 32 15 17 1006.2 1006.3 2.6
17/02:00am 9.3 6.1 8.5 95 0.4 N 15 20 8 11 1006.5 1006.5 2.6
17/01:30am 9.5 5.4 8.6 94 0.4 WNW 20 28 11 15 1006.9 1007.0 2.4
17/01:00am 10.3 6.0 9.4 94 0.5 WNW 22 30 12 16 1007.2 1007.2 2.0
17/12:30am 9.9 4.5 9.4 97 0.2 WNW 28 35 15 19 1007.3 1007.4 2.0
17/12:00am 9.9 6.0 9.6 98 0.2 NNW 20 32 11 17 1007.5 1007.5 2.0
 
Date/Time
EST
Temp
°C
App
Temp
°C
Dew
Point
Rel
Hum
%
Delta-T
°C
Wind Press
QNH
hPa
Press
MSL
hPa
Rain
since 9 am
mm
Dir
 
Spd
km/h
Gust
km/h
Spd
kts
Gust
kts
16/11:30pm 9.0 4.9 8.5 97 0.2 N 20 30 11 16 1007.8 1007.9 2.0
16/11:00pm 8.5 4.5 8.1 97 0.2 N 19 24 10 13 1008.1 1008.1 1.0
16/10:30pm 8.4 4.1 7.8 96 0.3 N 20 24 11 13 1008.3 1008.4 1.0
16/10:00pm 8.3 4.5 7.4 94 0.4 N 17 20 9 11 1008.7 1008.7 1.0
16/09:30pm 9.4 5.2 8.3 93 0.5 NNW 20 28 11 15 1008.9 1009.0 1.0
16/09:00pm 9.4 6.1 8.0 91 0.7 N 15 20 8 11 1008.9 1008.9 0.8
16/08:30pm 9.2 4.8 7.3 88 0.9 N 20 24 11 13 1009.0 1009.1 0.0
16/08:00pm 9.1 4.7 6.5 84 1.2 N 19 22 10 12 1009.1 1009.1 0.0
16/07:30pm 10.8 6.2 8.0 83 1.4 NNW 22 28 12 15 1009.2 1009.3 0.0
16/07:00pm 9.4 5.8 6.7 83 1.3 N 15 20 8 11 1009.1 1009.1 0.0
16/06:30pm 10.7 6.1 8.1 84 1.3 NNW 22 26 12 14 1009.1 1009.2 0.0
16/06:00pm 10.6 6.0 8.0 84 1.3 NNW 22 28 12 15 1009.3 1009.3 0.0
16/05:30pm 11.1 6.4 7.8 80 1.6 NW 22 26 12 14 1009.3 1009.4 0.0
16/05:00pm 11.9 7.3 8.0 77 1.9 NW 22 26 12 14 1009.2 1009.2 0.0
16/04:30pm 12.5 8.9 8.4 76 2.0 NNW 17 22 9 12 1009.1 1009.2 0.0
16/04:00pm 11.6 7.4 7.5 76 2.0 WNW 19 22 10 12 1009.2 1009.2 0.0
16/03:30pm 12.0 7.1 7.1 72 2.4 WNW 22 26 12 14 1009.2 1009.3 0.0
16/03:00pm 12.4 8.0 7.3 71 2.5 WNW 20 24 11 13 1009.3 1009.3 0.0
16/02:30pm 12.9 8.7 7.4 69 2.7 W 19 22 10 12 1009.3 1009.4 0.0
16/02:00pm 13.3 8.9 7.5 68 2.8 WNW 20 24 11 13 1009.3 1009.3 0.0

Other Formats:

Comma delimited format used in spreadsheet applications
http://www.bom.gov.au/fwo/IDT60801/IDT60801.95961.axf

JavaScript Object Notation format (JSON) in row-major order
http://www.bom.gov.au/fwo/IDT60801/IDT60801.95961.json